Time;durP1;ratioP1;P1;durP2;ratioP2;P2;SDS_P1;SDS_P2;PMS_P1;PMS_P2;Temp;Humidity;BMP_temperature;BMP_pressure;BME280_temperature;BME280_humidity;BME280_pressure;Samples;Min_cycle;Max_cycle;Signal;HPM_P1;HPM_P2
2022/10/26 00:00:00;0.00;0.00;0.62;0.00;0.00;0.62;2.60;2.03;;;28.20;29.40;;;;;;2261907;61;20366;-68
2022/10/26 00:02:45;0.00;0.00;0.62;0.00;0.00;0.62;2.73;1.73;;;28.20;29.40;;;;;;2261730;61;20408;-69
2022/10/26 00:05:33;0.00;0.00;0.62;0.00;0.00;0.62;2.80;2.10;;;28.20;29.40;;;;;;2261175;61;20393;-69
2022/10/26 00:08:18;0.00;0.00;0.62;0.00;0.00;0.62;2.40;1.80;;;28.20;29.40;;;;;;2261895;61;20370;-69
2022/10/26 00:11:03;0.00;0.00;0.62;0.00;0.00;0.62;2.13;1.90;;;28.20;29.40;;;;;;2261205;61;20362;-69
2022/10/26 00:13:48;0.00;0.00;0.62;0.00;0.00;0.62;2.50;2.00;;;28.20;29.40;;;;;;2261572;61;20377;-69
2022/10/26 00:16:33;0.00;0.00;0.62;0.00;0.00;0.62;2.37;2.00;;;28.20;29.40;;;;;;2261868;61;20358;-69
2022/10/26 00:19:18;0.00;0.00;0.62;0.00;0.00;0.62;2.00;1.50;;;28.20;29.40;;;;;;2261286;61;20597;-69
2022/10/26 00:22:04;0.00;0.00;0.62;0.00;0.00;0.62;3.83;1.83;;;28.10;29.30;;;;;;2595668;45;20382;-69
2022/10/26 00:24:48;0.00;0.00;0.62;0.00;0.00;0.62;2.10;1.70;;;28.20;29.40;;;;;;2261279;61;20390;-70
2022/10/26 00:27:34;0.00;0.00;0.62;0.00;0.00;0.62;2.03;1.83;;;28.10;29.30;;;;;;2262114;61;20391;-69
2022/10/26 00:30:19;0.00;0.00;0.62;0.00;0.00;0.62;3.30;2.20;;;28.20;29.40;;;;;;2588065;45;20397;-69
2022/10/26 00:33:03;0.00;0.00;0.62;0.00;0.00;0.62;1.87;1.67;;;28.20;29.40;;;;;;2261196;61;20366;-69
2022/10/26 00:35:52;0.00;0.00;0.62;0.00;0.00;0.62;2.87;2.23;;;28.10;29.30;;;;;;2261492;61;20741;-70
2022/10/26 00:38:44;0.00;0.00;0.62;0.00;0.00;0.62;2.87;2.50;;;28.20;29.30;;;;;;2261944;61;20369;-70
2022/10/26 00:41:32;0.00;0.00;0.62;0.00;0.00;0.62;2.33;2.00;;;28.10;29.20;;;;;;2260977;61;20366;-68
2022/10/26 00:45:00;0.00;0.00;0.62;0.00;0.00;0.62;2.70;1.80;;;28.10;29.20;;;;;;2261662;61;20405;-69
2022/10/26 00:47:48;0.00;0.00;0.62;0.00;0.00;0.62;3.27;2.20;;;28.10;29.20;;;;;;2260976;61;20705;-69
2022/10/26 00:50:37;0.00;0.00;0.62;0.00;0.00;0.62;3.17;2.03;;;28.10;29.10;;;;;;2261484;61;20579;-69
2022/10/26 00:53:22;0.00;0.00;0.62;0.00;0.00;0.62;2.10;1.90;;;28.10;29.00;;;;;;2261767;61;20401;-69
2022/10/26 00:56:09;0.00;0.00;0.62;0.00;0.00;0.62;3.13;2.37;;;28.00;28.90;;;;;;2260626;61;20734;-69
2022/10/26 00:58:54;0.00;0.00;0.62;0.00;0.00;0.62;1.93;1.73;;;28.00;28.90;;;;;;2261947;61;20346;-69
2022/10/26 01:01:42;0.00;0.00;0.62;0.00;0.00;0.62;2.70;2.17;;;28.00;28.80;;;;;;2261463;61;20765;-69
2022/10/26 01:04:27;0.00;0.00;0.62;0.00;0.00;0.62;2.50;2.30;;;27.90;28.80;;;;;;2260652;61;20437;-70
2022/10/26 01:07:13;0.00;0.00;0.62;0.00;0.00;0.62;3.97;2.30;;;27.90;28.80;;;;;;2261846;61;20583;-69
2022/10/26 01:09:59;0.00;0.00;0.62;0.00;0.00;0.62;2.83;1.83;;;27.90;28.70;;;;;;2260991;61;20385;-68
2022/10/26 01:12:46;0.00;0.00;0.62;0.00;0.00;0.62;2.63;2.00;;;27.80;28.70;;;;;;2261466;61;20385;-69
2022/10/26 01:15:40;0.00;0.00;0.62;0.00;0.00;0.62;6.03;2.40;;;27.80;28.70;;;;;;2261623;61;20460;-70
2022/10/26 01:18:36;0.00;0.00;0.62;0.00;0.00;0.62;2.13;1.80;;;27.80;28.70;;;;;;2260731;61;20382;-68
2022/10/26 01:21:47;0.00;0.00;0.62;0.00;0.00;0.62;3.87;2.70;;;27.70;28.60;;;;;;2265205;61;20376;-69
2022/10/26 01:24:53;0.00;0.00;0.62;0.00;0.00;0.62;2.57;2.37;;;27.70;28.60;;;;;;2265194;61;20381;-69
2022/10/26 01:27:39;0.00;0.00;0.62;0.00;0.00;0.62;2.57;2.10;;;27.70;28.60;;;;;;2265600;61;20804;-70
2022/10/26 01:30:37;0.00;0.00;0.62;0.00;0.00;0.62;2.83;2.23;;;27.60;28.50;;;;;;2301399;58;20373;-69
2022/10/26 01:33:37;0.00;0.00;0.62;0.00;0.00;0.62;3.73;2.30;;;27.60;28.50;;;;;;2264975;61;20381;-69
2022/10/26 01:36:31;0.00;0.00;0.62;0.00;0.00;0.62;4.57;2.40;;;27.50;28.40;;;;;;2265616;61;20400;-70
2022/10/26 01:39:22;0.00;0.00;0.62;0.00;0.00;0.62;2.70;2.07;;;27.50;28.50;;;;;;2265266;61;20396;-71
2022/10/26 01:42:10;0.00;0.00;0.62;0.00;0.00;0.62;3.30;3.00;;;27.40;28.50;;;;;;2265454;61;20680;-70
2022/10/26 01:45:01;0.00;0.00;0.62;0.00;0.00;0.62;5.00;2.47;;;27.40;28.00;;;;;;2265314;61;20776;-69
2022/10/26 01:47:48;0.00;0.00;0.62;0.00;0.00;0.62;2.80;2.40;;;27.30;27.90;;;;;;2265050;61;20385;-69
2022/10/26 01:50:34;0.00;0.00;0.62;0.00;0.00;0.62;4.63;2.63;;;27.20;28.00;;;;;;2265610;61;20713;-70
2022/10/26 01:53:19;0.00;0.00;0.62;0.00;0.00;0.62;2.80;2.47;;;27.20;28.20;;;;;;2264795;61;20392;-70
2022/10/26 01:56:12;0.00;0.00;0.62;0.00;0.00;0.62;3.20;2.30;;;27.10;28.20;;;;;;2264995;61;20580;-69
2022/10/26 01:59:33;0.00;0.00;0.62;0.00;0.00;0.62;3.17;2.30;;;27.10;28.30;;;;;;2265515;61;20594;-69
2022/10/26 02:02:58;0.00;0.00;0.62;0.00;0.00;0.62;3.13;1.97;;;27.10;28.40;;;;;;2264994;61;20468;-70
2022/10/26 02:06:12;0.00;0.00;0.62;0.00;0.00;0.62;2.33;1.97;;;27.00;28.90;;;;;;2265408;61;20683;-69
2022/10/26 02:09:07;0.00;0.00;0.62;0.00;0.00;0.62;2.40;1.83;;;27.00;28.40;;;;;;2265377;61;20403;-69
2022/10/26 02:11:53;0.00;0.00;0.62;0.00;0.00;0.62;3.07;1.80;;;27.00;28.50;;;;;;2265249;61;20396;-70
2022/10/26 02:14:47;0.00;0.00;0.62;0.00;0.00;0.62;2.50;2.17;;;26.90;28.50;;;;;;2265512;61;20764;-69
2022/10/26 02:17:37;0.00;0.00;0.62;0.00;0.00;0.62;3.30;2.00;;;26.90;28.50;;;;;;2264747;61;20756;-70
2022/10/26 02:20:26;0.00;0.00;0.62;0.00;0.00;0.62;3.23;2.27;;;26.90;28.50;;;;;;2265339;61;20721;-69
2022/10/26 02:23:14;0.00;0.00;0.62;0.00;0.00;0.62;2.20;2.00;;;26.90;28.50;;;;;;2265254;61;20352;-68
2022/10/26 02:26:02;0.00;0.00;0.62;0.00;0.00;0.62;9.50;2.60;;;26.80;28.50;;;;;;2264708;61;20456;-70
2022/10/26 02:28:53;0.00;0.00;0.62;0.00;0.00;0.62;3.37;2.40;;;26.80;28.20;;;;;;2265634;61;20404;-69
2022/10/26 02:31:41;0.00;0.00;0.62;0.00;0.00;0.62;2.70;2.17;;;26.80;28.80;;;;;;2264898;61;20783;-70
2022/10/26 02:34:29;0.00;0.00;0.62;0.00;0.00;0.62;2.40;2.20;;;26.80;28.90;;;;;;2265048;61;20443;-70
2022/10/26 02:37:16;0.00;0.00;0.62;0.00;0.00;0.62;2.20;1.70;;;26.70;28.40;;;;;;2265702;61;20457;-69
2022/10/26 02:40:11;0.00;0.00;0.62;0.00;0.00;0.62;2.10;1.57;;;26.70;28.40;;;;;;2264686;61;20588;-69
2022/10/26 02:43:00;0.00;0.00;0.62;0.00;0.00;0.62;2.50;1.70;;;26.70;28.50;;;;;;2265647;61;20365;-69
2022/10/26 02:45:50;0.00;0.00;0.62;0.00;0.00;0.62;3.47;2.00;;;26.60;28.50;;;;;;2265191;61;20615;-68
2022/10/26 02:48:35;0.00;0.00;0.62;0.00;0.00;0.62;2.80;1.90;;;26.60;28.50;;;;;;2264908;61;20445;-68
2022/10/26 02:51:32;0.00;0.00;0.62;0.00;0.00;0.62;3.00;1.87;;;26.60;28.50;;;;;;2265687;61;20356;-69
2022/10/26 02:54:27;0.00;0.00;0.62;0.00;0.00;0.62;3.57;2.10;;;26.60;28.50;;;;;;2264425;61;20389;-70
2022/10/26 02:57:18;0.00;0.00;0.62;0.00;0.00;0.62;2.80;1.90;;;26.60;28.60;;;;;;2265259;61;20361;-70
2022/10/26 03:00:04;0.00;0.00;0.62;0.00;0.00;0.62;2.97;1.80;;;26.60;28.60;;;;;;2265189;61;20487;-70
2022/10/26 03:02:53;0.00;0.00;0.62;0.00;0.00;0.62;2.80;1.63;;;26.60;28.70;;;;;;2264756;61;20377;-68
2022/10/26 03:05:41;0.00;0.00;0.62;0.00;0.00;0.62;3.43;2.30;;;26.60;28.60;;;;;;2265559;61;20436;-70
2022/10/26 03:08:26;0.00;0.00;0.62;0.00;0.00;0.62;3.70;2.23;;;26.60;28.70;;;;;;2264504;61;20624;-69
2022/10/26 03:11:11;0.00;0.00;0.62;0.00;0.00;0.62;2.10;1.67;;;26.60;28.60;;;;;;2265306;61;20743;-69
2022/10/26 03:13:58;0.00;0.00;0.62;0.00;0.00;0.62;2.63;1.87;;;26.60;28.60;;;;;;2266111;61;20380;-69
2022/10/26 03:16:42;0.00;0.00;0.62;0.00;0.00;0.62;3.50;2.17;;;26.60;28.60;;;;;;2265234;61;20674;-69
2022/10/26 03:19:27;0.00;0.00;0.62;0.00;0.00;0.62;2.83;1.43;;;26.60;28.60;;;;;;2266339;61;20402;-69
2022/10/26 03:22:11;0.00;0.00;0.62;0.00;0.00;0.62;2.17;1.60;;;26.60;28.60;;;;;;2265659;61;20889;-69
2022/10/26 03:24:56;0.00;0.00;0.62;0.00;0.00;0.62;2.60;2.27;;;26.60;28.60;;;;;;2264803;61;20740;-69
2022/10/26 03:27:40;0.00;0.00;0.62;0.00;0.00;0.62;2.03;1.80;;;26.60;28.60;;;;;;2266280;61;20411;-69
2022/10/26 03:30:28;0.00;0.00;0.62;0.00;0.00;0.62;2.13;1.63;;;26.60;28.60;;;;;;2265244;61;20410;-69
2022/10/26 03:33:13;0.00;0.00;0.62;0.00;0.00;0.62;2.37;1.90;;;26.60;28.60;;;;;;2265455;61;20473;-69
2022/10/26 03:35:58;0.00;0.00;0.62;0.00;0.00;0.62;2.30;1.93;;;26.60;28.60;;;;;;2266029;61;20393;-69
2022/10/26 03:38:43;0.00;0.00;0.62;0.00;0.00;0.62;2.40;1.90;;;26.60;28.70;;;;;;2265268;61;20613;-70
2022/10/26 03:41:27;0.00;0.00;0.62;0.00;0.00;0.62;2.83;1.67;;;26.60;28.70;;;;;;2266267;61;20645;-69
2022/10/26 03:44:12;0.00;0.00;0.62;0.00;0.00;0.62;2.30;1.77;;;26.50;28.60;;;;;;2265257;61;20404;-69
2022/10/26 03:46:58;0.00;0.00;0.62;0.00;0.00;0.62;3.50;1.97;;;26.50;28.60;;;;;;2265362;61;20353;-69
2022/10/26 03:49:43;0.00;0.00;0.62;0.00;0.00;0.62;2.90;1.90;;;26.50;28.60;;;;;;2266241;61;20481;-69
2022/10/26 03:52:28;0.00;0.00;0.62;0.00;0.00;0.62;2.20;1.97;;;26.50;28.70;;;;;;2265561;61;20749;-69
2022/10/26 03:55:12;0.00;0.00;0.62;0.00;0.00;0.62;2.90;2.00;;;26.50;28.60;;;;;;2265196;61;20437;-69
2022/10/26 03:57:57;0.00;0.00;0.62;0.00;0.00;0.62;2.40;1.97;;;26.50;28.60;;;;;;2265931;61;20357;-69
2022/10/26 04:00:42;0.00;0.00;0.62;0.00;0.00;0.62;2.00;1.70;;;26.50;28.70;;;;;;2265465;61;20465;-69
2022/10/26 04:03:28;0.00;0.00;0.62;0.00;0.00;0.62;2.43;2.00;;;26.50;28.70;;;;;;2265646;61;20408;-69
2022/10/26 04:06:13;0.00;0.00;0.62;0.00;0.00;0.62;2.93;2.33;;;26.50;28.70;;;;;;2265674;61;20385;-69
2022/10/26 04:09:01;0.00;0.00;0.62;0.00;0.00;0.62;3.70;2.03;;;26.50;28.70;;;;;;2265471;61;20404;-69
2022/10/26 04:11:45;0.00;0.00;0.62;0.00;0.00;0.62;2.37;2.00;;;26.50;28.70;;;;;;2265764;61;20408;-69
2022/10/26 04:14:30;0.00;0.00;0.62;0.00;0.00;0.62;2.30;2.00;;;26.50;28.70;;;;;;2265475;61;20373;-69
2022/10/26 04:17:15;0.00;0.00;0.62;0.00;0.00;0.62;2.57;1.97;;;26.50;28.80;;;;;;2265436;61;20571;-69
2022/10/26 04:20:01;0.00;0.00;0.62;0.00;0.00;0.62;2.60;1.73;;;26.50;28.80;;;;;;2265864;61;20377;-69
2022/10/26 04:22:45;0.00;0.00;0.62;0.00;0.00;0.62;2.20;1.80;;;26.50;28.80;;;;;;2264847;61;20361;-69
2022/10/26 04:25:32;0.00;0.00;0.62;0.00;0.00;0.62;2.50;1.53;;;26.50;28.80;;;;;;2265523;61;20413;-68
2022/10/26 04:28:17;0.00;0.00;0.62;0.00;0.00;0.62;2.60;2.10;;;26.50;28.80;;;;;;2265953;61;20607;-69
2022/10/26 04:31:01;0.00;0.00;0.62;0.00;0.00;0.62;2.83;2.10;;;26.40;28.80;;;;;;2265107;61;20368;-68
2022/10/26 04:33:46;0.00;0.00;0.62;0.00;0.00;0.62;2.30;1.77;;;26.40;28.80;;;;;;2265653;61;20365;-68
2022/10/26 04:36:33;0.00;0.00;0.62;0.00;0.00;0.62;2.10;1.87;;;26.40;28.80;;;;;;2265492;61;20408;-69
2022/10/26 04:39:18;0.00;0.00;0.62;0.00;0.00;0.62;2.20;1.60;;;26.40;28.80;;;;;;2265248;61;20725;-69
2022/10/26 04:42:03;0.00;0.00;0.62;0.00;0.00;0.62;1.93;1.73;;;26.40;28.90;;;;;;2265765;61;20763;-69
2022/10/26 04:44:48;0.00;0.00;0.62;0.00;0.00;0.62;2.10;1.60;;;26.40;28.90;;;;;;2264952;61;20423;-68
2022/10/26 04:47:32;0.00;0.00;0.62;0.00;0.00;0.62;2.13;1.83;;;26.40;28.90;;;;;;2265407;61;20464;-69
2022/10/26 04:50:17;0.00;0.00;0.62;0.00;0.00;0.62;3.87;1.87;;;26.40;28.90;;;;;;2265768;61;20403;-69
2022/10/26 04:53:05;0.00;0.00;0.62;0.00;0.00;0.62;2.00;1.80;;;26.40;28.90;;;;;;2265043;61;20763;-68
2022/10/26 04:55:55;0.00;0.00;0.62;0.00;0.00;0.62;2.00;1.70;;;26.40;28.80;;;;;;2265574;61;20380;-70
2022/10/26 04:58:40;0.00;0.00;0.62;0.00;0.00;0.62;2.47;1.90;;;26.40;28.80;;;;;;2265665;61;20361;-70
2022/10/26 05:01:24;0.00;0.00;0.62;0.00;0.00;0.62;2.10;1.80;;;26.40;28.80;;;;;;2264701;61;20427;-71
2022/10/26 05:04:09;0.00;0.00;0.62;0.00;0.00;0.62;2.90;2.33;;;26.30;28.70;;;;;;2265483;61;20515;-71
2022/10/26 05:06:54;0.00;0.00;0.62;0.00;0.00;0.62;2.73;2.07;;;26.30;28.70;;;;;;2265052;61;20480;-69
2022/10/26 05:09:39;0.00;0.00;0.62;0.00;0.00;0.62;3.33;2.20;;;26.30;28.60;;;;;;2265434;61;20615;-69
2022/10/26 05:12:24;0.00;0.00;0.62;0.00;0.00;0.62;3.30;2.27;;;26.30;28.70;;;;;;2265748;61;20361;-70
2022/10/26 05:15:10;0.00;0.00;0.62;0.00;0.00;0.62;2.77;2.00;;;26.30;28.70;;;;;;2264778;61;20586;-66
2022/10/26 05:17:56;0.00;0.00;0.62;0.00;0.00;0.62;2.43;2.13;;;26.20;28.60;;;;;;2265792;61;20364;-68
2022/10/26 05:20:41;0.00;0.00;0.62;0.00;0.00;0.62;2.70;2.23;;;26.20;28.70;;;;;;2265075;61;20736;-68
2022/10/26 05:23:25;0.00;0.00;0.62;0.00;0.00;0.62;3.43;2.33;;;26.20;28.70;;;;;;2264854;61;20349;-66
2022/10/26 05:26:12;0.00;0.00;0.62;0.00;0.00;0.62;2.87;2.37;;;26.20;28.50;;;;;;2265789;61;20465;-69
2022/10/26 05:28:57;0.00;0.00;0.62;0.00;0.00;0.62;3.80;2.63;;;26.10;28.50;;;;;;2265239;61;20383;-66
2022/10/26 05:31:42;0.00;0.00;0.62;0.00;0.00;0.62;4.53;2.37;;;26.10;28.60;;;;;;2265245;61;20728;-70
2022/10/26 05:34:27;0.00;0.00;0.62;0.00;0.00;0.62;2.83;1.77;;;26.10;28.60;;;;;;2265569;61;20748;-72
2022/10/26 05:37:12;0.00;0.00;0.62;0.00;0.00;0.62;3.57;2.30;;;26.10;28.70;;;;;;2264977;61;20399;-69
2022/10/26 05:39:56;0.00;0.00;0.62;0.00;0.00;0.62;2.40;2.10;;;26.00;28.70;;;;;;2265713;61;20373;-67
2022/10/26 05:42:42;0.00;0.00;0.62;0.00;0.00;0.62;3.10;2.13;;;26.00;28.70;;;;;;2265536;61;20445;-71
2022/10/26 05:45:27;0.00;0.00;0.62;0.00;0.00;0.62;2.20;1.60;;;26.00;28.70;;;;;;2264972;61;20384;-71
2022/10/26 05:48:12;0.00;0.00;0.62;0.00;0.00;0.62;4.10;2.53;;;26.00;28.70;;;;;;2265851;61;20353;-69
2022/10/26 05:50:59;0.00;0.00;0.62;0.00;0.00;0.62;2.50;2.03;;;26.00;28.70;;;;;;2265375;61;20399;-66
2022/10/26 05:53:44;0.00;0.00;0.62;0.00;0.00;0.62;2.27;1.67;;;26.00;28.80;;;;;;2265229;61;20412;-67
2022/10/26 05:56:35;0.00;0.00;0.62;0.00;0.00;0.62;2.30;1.80;;;26.00;29.30;;;;;;2265786;61;20388;-65
2022/10/26 05:59:24;0.00;0.00;0.62;0.00;0.00;0.62;4.73;2.73;;;26.00;28.70;;;;;;2264917;61;20357;-72
2022/10/26 06:02:23;0.00;0.00;0.62;0.00;0.00;0.62;2.77;2.20;;;26.00;28.70;;;;;;2265856;61;20478;-73
2022/10/26 06:05:13;0.00;0.00;0.62;0.00;0.00;0.62;2.77;1.90;;;26.00;28.80;;;;;;2265166;61;20492;-69
2022/10/26 06:07:58;0.00;0.00;0.62;0.00;0.00;0.62;2.57;2.30;;;26.00;28.80;;;;;;2265262;61;20361;-75
2022/10/26 06:10:45;0.00;0.00;0.62;0.00;0.00;0.62;2.53;2.17;;;26.00;28.80;;;;;;2265650;61;20383;-70
2022/10/26 06:13:32;0.00;0.00;0.62;0.00;0.00;0.62;2.30;2.03;;;26.00;28.80;;;;;;2264797;61;20756;-71
2022/10/26 06:16:32;0.00;0.00;0.62;0.00;0.00;0.62;2.13;1.70;;;26.00;28.80;;;;;;2265480;61;20500;-71
2022/10/26 06:19:31;0.00;0.00;0.62;0.00;0.00;0.62;2.53;2.20;;;26.00;28.80;;;;;;2265242;61;20353;-72
2022/10/26 06:22:32;0.00;0.00;0.62;0.00;0.00;0.62;2.40;1.83;;;26.00;28.80;;;;;;2260927;61;20665;-71
2022/10/26 06:25:28;0.00;0.00;0.62;0.00;0.00;0.62;2.80;1.80;;;26.00;28.80;;;;;;2261501;61;20393;-74
2022/10/26 06:28:29;0.00;0.00;0.62;0.00;0.00;0.62;2.23;2.00;;;26.00;28.80;;;;;;2260846;61;20361;-74
2022/10/26 06:31:14;0.00;0.00;0.62;0.00;0.00;0.62;5.40;2.10;;;26.00;28.80;;;;;;2261424;61;20362;-70
2022/10/26 06:34:01;0.00;0.00;0.62;0.00;0.00;0.62;4.00;2.20;;;26.00;28.80;;;;;;2260926;61;20408;-71
2022/10/26 06:36:46;0.00;0.00;0.62;0.00;0.00;0.62;2.30;1.93;;;26.00;28.80;;;;;;2260919;61;20684;-72
2022/10/26 06:39:35;0.00;0.00;0.62;0.00;0.00;0.62;3.17;2.00;;;26.00;28.90;;;;;;2261690;61;20370;-71
2022/10/26 06:42:21;0.00;0.00;0.62;0.00;0.00;0.62;2.30;1.80;;;26.00;28.90;;;;;;2261111;61;20354;-76
2022/10/26 06:45:14;0.00;0.00;0.62;0.00;0.00;0.62;6.00;2.90;;;26.00;28.80;;;;;;2260768;61;20826;-72
2022/10/26 06:48:07;0.00;0.00;0.62;0.00;0.00;0.62;4.23;2.23;;;26.00;28.90;;;;;;2262008;61;20431;-74
2022/10/26 06:50:54;0.00;0.00;0.62;0.00;0.00;0.62;2.70;2.10;;;26.00;28.80;;;;;;2261688;61;20416;-72
2022/10/26 06:53:45;0.00;0.00;0.62;0.00;0.00;0.62;3.20;2.03;;;26.00;28.80;;;;;;2261963;61;20369;-72
2022/10/26 06:56:30;0.00;0.00;0.62;0.00;0.00;0.62;3.10;2.00;;;26.00;28.70;;;;;;2261757;61;20357;-71
2022/10/26 06:59:28;0.00;0.00;0.62;0.00;0.00;0.62;2.60;2.30;;;26.00;28.70;;;;;;2261603;61;20352;-71
2022/10/26 07:02:13;0.00;0.00;0.62;0.00;0.00;0.62;2.50;1.87;;;25.90;28.80;;;;;;2261685;61;20361;-70
2022/10/26 07:04:58;0.00;0.00;0.62;0.00;0.00;0.62;2.80;1.80;;;26.00;28.80;;;;;;2261537;61;20524;-71
2022/10/26 07:07:46;0.00;0.00;0.62;0.00;0.00;0.62;2.43;1.80;;;25.90;28.70;;;;;;2262010;61;20593;-73
2022/10/26 07:10:33;0.00;0.00;0.62;0.00;0.00;0.62;2.97;1.73;;;25.90;29.30;;;;;;2261942;61;20397;-66
2022/10/26 07:13:18;0.00;0.00;0.62;0.00;0.00;0.62;4.03;2.20;;;25.80;28.70;;;;;;2261400;61;20430;-73
2022/10/26 07:16:04;0.00;0.00;0.62;0.00;0.00;0.62;2.90;1.80;;;25.80;29.20;;;;;;2262426;61;20408;-68
2022/10/26 07:18:48;0.00;0.00;0.62;0.00;0.00;0.62;2.97;1.93;;;25.80;28.70;;;;;;2265699;61;20724;-69
2022/10/26 07:21:33;0.00;0.00;0.62;0.00;0.00;0.62;3.53;1.90;;;25.80;28.70;;;;;;2265446;61;20473;-73
2022/10/26 07:24:19;0.00;0.00;0.62;0.00;0.00;0.62;3.57;2.13;;;25.80;28.70;;;;;;2265382;61;20384;-67
2022/10/26 07:27:04;0.00;0.00;0.62;0.00;0.00;0.62;2.80;2.10;;;25.80;28.70;;;;;;2265932;61;20484;-67
2022/10/26 07:29:48;0.00;0.00;0.62;0.00;0.00;0.62;2.00;1.43;;;25.70;28.70;;;;;;2265186;61;20357;-71
2022/10/26 07:32:33;0.00;0.00;0.62;0.00;0.00;0.62;2.27;1.60;;;25.70;28.70;;;;;;2265885;61;20412;-68
2022/10/26 07:35:18;0.00;0.00;0.62;0.00;0.00;0.62;2.00;1.53;;;25.70;28.80;;;;;;2265290;61;20427;-74
2022/10/26 07:38:03;0.00;0.00;0.62;0.00;0.00;0.62;2.60;1.57;;;25.70;28.90;;;;;;2265296;61;20691;-75
2022/10/26 07:40:53;0.00;0.00;0.62;0.00;0.00;0.62;3.13;1.70;;;25.70;28.90;;;;;;2692385;45;20394;-71
2022/10/26 07:43:38;0.00;0.00;0.62;0.00;0.00;0.62;1.90;1.30;;;25.70;28.90;;;;;;2261218;61;20363;-68
2022/10/26 07:46:22;0.00;0.00;0.62;0.00;0.00;0.62;1.90;1.50;;;25.70;28.90;;;;;;2261648;61;20653;-74
2022/10/26 07:49:07;0.00;0.00;0.62;0.00;0.00;0.62;1.73;1.47;;;25.70;29.00;;;;;;2262097;61;20393;-75
2022/10/26 07:51:52;0.00;0.00;0.62;0.00;0.00;0.62;4.20;2.00;;;25.80;29.00;;;;;;2261269;61;20405;-73
2022/10/26 07:54:37;0.00;0.00;0.62;0.00;0.00;0.62;2.37;1.70;;;25.80;29.00;;;;;;2261540;61;20381;-73
2022/10/26 07:57:22;0.00;0.00;0.62;0.00;0.00;0.62;1.87;1.40;;;25.80;29.10;;;;;;2261621;61;20459;-76
2022/10/26 08:00:09;0.00;0.00;0.62;0.00;0.00;0.62;1.80;1.30;;;25.80;29.60;;;;;;2261881;61;20366;-76
2022/10/26 08:02:54;0.00;0.00;0.62;0.00;0.00;0.62;1.90;1.10;;;25.90;29.10;;;;;;2262179;61;20354;-74
2022/10/26 08:05:39;0.00;0.00;0.62;0.00;0.00;0.62;1.83;1.37;;;25.90;29.20;;;;;;2261361;61;20785;-67
2022/10/26 08:08:24;0.00;0.00;0.62;0.00;0.00;0.62;2.50;1.60;;;25.90;29.10;;;;;;2261936;61;20373;-73
2022/10/26 08:11:09;0.00;0.00;0.62;0.00;0.00;0.62;2.57;1.80;;;25.90;29.10;;;;;;2261842;61;20408;-75
2022/10/26 08:13:55;0.00;0.00;0.62;0.00;0.00;0.62;2.57;1.60;;;25.90;29.10;;;;;;2261316;61;20389;-68
2022/10/26 08:16:39;0.00;0.00;0.62;0.00;0.00;0.62;2.80;1.70;;;25.90;29.10;;;;;;2262007;61;20358;-75
2022/10/26 08:19:24;0.00;0.00;0.62;0.00;0.00;0.62;4.07;1.90;;;26.00;29.20;;;;;;2261554;61;20397;-72
2022/10/26 08:22:09;0.00;0.00;0.62;0.00;0.00;0.62;2.97;1.83;;;26.00;29.70;;;;;;2730511;45;20354;-69
2022/10/26 08:24:53;0.00;0.00;0.62;0.00;0.00;0.62;2.30;1.80;;;26.00;29.20;;;;;;2261680;61;20382;-68
2022/10/26 08:27:38;0.00;0.00;0.62;0.00;0.00;0.62;4.13;1.70;;;26.00;29.20;;;;;;2261288;61;20357;-76
2022/10/26 08:30:24;0.00;0.00;0.62;0.00;0.00;0.62;2.77;1.90;;;26.00;29.20;;;;;;2261705;61;20381;-72
2022/10/26 08:33:10;0.00;0.00;0.62;0.00;0.00;0.62;2.57;1.93;;;26.00;29.20;;;;;;2261048;61;20362;-69
2022/10/26 08:35:55;0.00;0.00;0.62;0.00;0.00;0.62;2.00;1.40;;;26.10;29.30;;;;;;2261116;61;20428;-67
2022/10/26 08:38:40;0.00;0.00;0.62;0.00;0.00;0.62;3.20;1.93;;;26.10;29.30;;;;;;2262786;61;20369;-68
2022/10/26 08:41:34;0.00;0.00;0.62;0.00;0.00;0.62;2.73;1.90;;;26.10;29.30;;;;;;2265500;61;20362;-70
2022/10/26 08:44:26;0.00;0.00;0.62;0.00;0.00;0.62;3.37;2.20;;;26.10;29.20;;;;;;2265471;61;20372;-72
2022/10/26 08:47:18;0.00;0.00;0.62;0.00;0.00;0.62;3.60;2.33;;;26.10;29.20;;;;;;2265824;61;20455;-70
2022/10/26 08:50:10;0.00;0.00;0.62;0.00;0.00;0.62;2.30;1.80;;;26.10;29.30;;;;;;2265090;61;20792;-68
2022/10/26 08:53:02;0.00;0.00;0.62;0.00;0.00;0.62;3.10;2.10;;;26.20;29.30;;;;;;2266071;61;20360;-74
2022/10/26 08:55:52;0.00;0.00;0.62;0.00;0.00;0.62;2.40;1.87;;;26.20;29.30;;;;;;2265575;61;20377;-75
2022/10/26 08:58:42;0.00;0.00;0.62;0.00;0.00;0.62;2.63;2.00;;;26.20;29.30;;;;;;2265634;61;20392;-71
2022/10/26 09:01:30;0.00;0.00;0.62;0.00;0.00;0.62;2.83;2.30;;;26.20;29.30;;;;;;2265824;61;20717;-72
2022/10/26 09:04:16;0.00;0.00;0.62;0.00;0.00;0.62;2.53;2.00;;;26.20;29.30;;;;;;2264940;61;20373;-68
2022/10/26 09:07:15;0.00;0.00;0.62;0.00;0.00;0.62;3.40;1.87;;;26.20;29.30;;;;;;2265906;61;20396;-70
2022/10/26 09:10:12;0.00;0.00;0.62;0.00;0.00;0.62;2.90;2.07;;;26.20;29.30;;;;;;2265413;61;20744;-70
2022/10/26 09:13:04;0.00;0.00;0.62;0.00;0.00;0.62;2.77;2.07;;;26.30;29.40;;;;;;2265562;61;20357;-76
2022/10/26 09:16:05;0.00;0.00;0.62;0.00;0.00;0.62;2.53;1.77;;;26.30;29.40;;;;;;2265472;61;20415;-71
2022/10/26 09:19:00;0.00;0.00;0.62;0.00;0.00;0.62;2.53;1.47;;;26.30;29.40;;;;;;2265467;61;20618;-70
2022/10/26 09:21:56;0.00;0.00;0.62;0.00;0.00;0.62;2.93;2.20;;;26.30;29.50;;;;;;2265319;61;20391;-68
2022/10/26 09:24:48;0.00;0.00;0.62;0.00;0.00;0.62;2.70;1.97;;;26.30;29.50;;;;;;2265402;61;20583;-69
2022/10/26 09:27:42;0.00;0.00;0.62;0.00;0.00;0.62;2.30;1.47;;;26.30;29.50;;;;;;2265187;61;20361;-68
2022/10/26 09:30:29;0.00;0.00;0.62;0.00;0.00;0.62;2.13;1.70;;;26.40;29.50;;;;;;2265596;61;20360;-67
2022/10/26 09:33:16;0.00;0.00;0.62;0.00;0.00;0.62;2.40;1.73;;;26.40;29.50;;;;;;2265230;61;20392;-75
2022/10/26 09:36:06;0.00;0.00;0.62;0.00;0.00;0.62;1.97;1.63;;;26.50;29.60;;;;;;2265496;61;20377;-73
2022/10/26 09:38:56;0.00;0.00;0.62;0.00;0.00;0.62;2.40;1.80;;;26.50;29.60;;;;;;2265271;61;20404;-77
2022/10/26 09:41:47;0.00;0.00;0.62;0.00;0.00;0.62;2.20;1.80;;;26.50;29.60;;;;;;2279498;61;20377;-71
2022/10/26 09:44:39;0.00;0.00;0.62;0.00;0.00;0.62;2.07;1.77;;;26.50;29.60;;;;;;2265381;61;20553;-71
2022/10/26 09:47:34;0.00;0.00;0.62;0.00;0.00;0.62;3.10;1.80;;;26.50;29.60;;;;;;2265379;61;20616;-69
2022/10/26 09:50:25;0.00;0.00;0.62;0.00;0.00;0.62;2.40;1.50;;;26.60;29.60;;;;;;2264805;61;20368;-68
2022/10/26 09:53:10;0.00;0.00;0.62;0.00;0.00;0.62;2.60;1.93;;;26.60;29.50;;;;;;2265714;61;20412;-72
2022/10/26 09:56:06;0.00;0.00;0.62;0.00;0.00;0.62;2.20;1.70;;;26.60;29.50;;;;;;2265235;61;20369;-75
2022/10/26 09:58:58;0.00;0.00;0.62;0.00;0.00;0.62;2.23;1.70;;;26.70;29.60;;;;;;2265659;61;20431;-72
2022/10/26 10:01:43;0.00;0.00;0.62;0.00;0.00;0.62;3.67;2.07;;;26.70;29.50;;;;;;2265589;61;20361;-70
2022/10/26 10:04:32;0.00;0.00;0.62;0.00;0.00;0.62;1.90;1.40;;;26.70;29.50;;;;;;2264975;61;20396;-71
2022/10/26 10:07:17;0.00;0.00;0.62;0.00;0.00;0.62;3.10;2.17;;;26.70;29.50;;;;;;2265544;61;20382;-73
2022/10/26 10:10:16;0.00;0.00;0.62;0.00;0.00;0.62;2.17;1.57;;;26.80;29.50;;;;;;2265635;61;20626;-73
2022/10/26 10:13:14;0.00;0.00;0.62;0.00;0.00;0.62;3.13;2.10;;;26.80;29.50;;;;;;2265319;61;20380;-69
2022/10/26 10:16:06;0.00;0.00;0.62;0.00;0.00;0.62;2.47;1.90;;;26.80;29.50;;;;;;2264964;61;20373;-70
2022/10/26 10:18:54;0.00;0.00;0.62;0.00;0.00;0.62;2.20;1.80;;;26.80;29.50;;;;;;2264320;61;20669;-70
2022/10/26 10:21:47;0.00;0.00;0.62;0.00;0.00;0.62;2.40;1.60;;;26.80;29.50;;;;;;2265523;61;20411;-68
2022/10/26 10:24:35;0.00;0.00;0.62;0.00;0.00;0.62;2.33;1.60;;;26.80;29.40;;;;;;2265987;61;20692;-74
2022/10/26 10:27:22;0.00;0.00;0.62;0.00;0.00;0.62;4.43;1.73;;;26.90;29.50;;;;;;2265644;61;20384;-74
2022/10/26 10:30:22;0.00;0.00;0.62;0.00;0.00;0.62;2.33;1.70;;;26.90;29.50;;;;;;2266114;61;20437;-73
2022/10/26 10:33:10;0.00;0.00;0.62;0.00;0.00;0.62;2.20;1.47;;;26.90;29.50;;;;;;2265680;61;20411;-67
2022/10/26 10:35:56;0.00;0.00;0.62;0.00;0.00;0.62;2.23;1.40;;;26.90;29.50;;;;;;2266141;61;20408;-68
2022/10/26 10:38:44;0.00;0.00;0.62;0.00;0.00;0.62;3.10;1.80;;;26.90;29.50;;;;;;2265064;61;20365;-71
2022/10/26 10:41:35;0.00;0.00;0.62;0.00;0.00;0.62;2.60;1.90;;;26.90;29.50;;;;;;2261619;61;20369;-73
2022/10/26 10:44:26;0.00;0.00;0.62;0.00;0.00;0.62;2.13;1.30;;;26.90;29.50;;;;;;2262067;61;20435;-68
2022/10/26 10:47:22;0.00;0.00;0.62;0.00;0.00;0.62;1.90;1.40;;;27.00;30.00;;;;;;2262032;61;20432;-75
2022/10/26 10:50:18;0.00;0.00;0.62;0.00;0.00;0.62;2.37;1.70;;;27.00;29.50;;;;;;2261881;61;20362;-73
2022/10/26 10:53:18;0.00;0.00;0.62;0.00;0.00;0.62;2.00;1.50;;;27.00;29.50;;;;;;2262150;61;20357;-75
2022/10/26 10:56:20;0.00;0.00;0.62;0.00;0.00;0.62;1.93;1.60;;;27.00;29.50;;;;;;2261605;61;20748;-73
2022/10/26 10:59:34;0.00;0.00;0.62;0.00;0.00;0.62;2.50;1.70;;;27.00;29.50;;;;;;2261983;61;20361;-68
2022/10/26 11:03:15;0.00;0.00;0.62;0.00;0.00;0.62;2.10;1.60;;;27.00;29.50;;;;;;2261458;61;20362;-67
2022/10/26 11:06:11;0.00;0.00;0.62;0.00;0.00;0.62;2.30;1.40;;;27.00;29.40;;;;;;2261913;61;20378;-73